Time;durP1;ratioP1;P1;durP2;ratioP2;P2;SDS_P1;SDS_P2;PMS_P1;PMS_P2;Temp;Humidity;BMP_temperature;BMP_pressure;BME280_temperature;BME280_humidity;BME280_pressure;Samples;Min_cycle;Max_cycle;Signal;HPM_P1;HPM_P2
2020/12/07 00:00:10;;;;;;;;;;;4.80;99.90;;;;;;5034578;28;19987;-62
2020/12/07 00:02:36;;;;;;;;;;;4.80;99.90;;;;;;5031517;28;19925;-62
2020/12/07 00:05:03;;;;;;;;;;;4.70;99.90;;;;;;5025166;28;20448;-62
2020/12/07 00:07:29;;;;;;;;;;;4.70;99.90;;;;;;5022603;28;19987;-62
2020/12/07 00:09:55;;;;;;;;;;;4.70;99.90;;;;;;5032629;28;19957;-61
2020/12/07 00:12:24;;;;;;;;;;;4.70;99.90;;;;;;5027766;28;20340;-63
2020/12/07 00:14:51;;;;;;;;;;;4.70;99.90;;;;;;5033614;28;20020;-62
2020/12/07 00:17:20;;;;;;;;;;;4.70;99.90;;;;;;5033960;28;20363;-63
2020/12/07 00:19:46;;;;;;;;;;;4.70;99.90;;;;;;5019749;28;20381;-61
2020/12/07 00:22:12;;;;;;;;;;;4.70;99.90;;;;;;5028172;28;19925;-64
2020/12/07 00:24:38;;;;;;;;;;;4.70;99.90;;;;;;5033621;28;20023;-63
2020/12/07 00:27:05;;;;;;;;;;;4.70;99.90;;;;;;5034861;28;20036;-62
2020/12/07 00:29:31;;;;;;;;;;;4.60;99.90;;;;;;5019267;28;20455;-62
2020/12/07 00:31:57;;;;;;;;;;;4.60;99.90;;;;;;5026154;28;20021;-62
2020/12/07 00:34:24;;;;;;;;;;;4.60;99.90;;;;;;5018039;28;19965;-61
2020/12/07 00:36:50;;;;;;;;;;;4.60;99.90;;;;;;5026919;28;19960;-62
2020/12/07 00:39:16;;;;;;;;;;;4.50;99.90;;;;;;5027269;28;20015;-62
2020/12/07 00:41:43;;;;;;;;;;;4.60;99.90;;;;;;5032778;28;20023;-62
2020/12/07 00:44:09;;;;;;;;;;;4.50;99.90;;;;;;5033054;28;20024;-62
2020/12/07 00:46:35;;;;;;;;;;;4.50;99.90;;;;;;5025177;28;19972;-62
2020/12/07 00:49:01;;;;;;;;;;;4.50;99.90;;;;;;5022894;28;19925;-62
2020/12/07 00:51:28;;;;;;;;;;;4.50;99.90;;;;;;5031073;28;20049;-62
2020/12/07 00:53:54;;;;;;;;;;;4.50;99.90;;;;;;5032026;28;20012;-60
2020/12/07 00:56:21;;;;;;;;;;;4.50;99.90;;;;;;5024535;28;19932;-63
2020/12/07 00:58:47;;;;;;;;;;;4.60;99.90;;;;;;5033328;28;20282;-63
2020/12/07 01:01:13;;;;;;;;;;;4.50;99.90;;;;;;5034185;28;19987;-63
2020/12/07 01:03:39;;;;;;;;;;;4.50;99.90;;;;;;5029353;28;20044;-64
2020/12/07 01:06:05;;;;;;;;;;;4.50;99.90;;;;;;5034266;28;19964;-63
2020/12/07 01:08:32;;;;;;;;;;;4.50;99.90;;;;;;5033492;28;20016;-63
2020/12/07 01:10:58;;;;;;;;;;;4.40;99.90;;;;;;5033456;28;20016;-63
2020/12/07 01:13:25;;;;;;;;;;;4.40;99.90;;;;;;5025145;28;19968;-61
2020/12/07 01:15:51;;;;;;;;;;;4.40;99.90;;;;;;5028538;28;20369;-65
2020/12/07 01:18:17;;;;;;;;;;;4.40;99.90;;;;;;5030416;28;20024;-63
2020/12/07 01:20:43;;;;;;;;;;;4.40;99.90;;;;;;5033211;28;19971;-62
2020/12/07 01:23:09;;;;;;;;;;;4.40;99.90;;;;;;5032917;28;19933;-63
2020/12/07 01:25:37;;;;;;;;;;;4.40;99.90;;;;;;5021402;28;20451;-62
2020/12/07 01:28:03;;;;;;;;;;;4.40;99.90;;;;;;5033573;28;19929;-62
2020/12/07 01:30:29;;;;;;;;;;;4.50;99.90;;;;;;5027903;28;20029;-63
2020/12/07 01:32:55;;;;;;;;;;;4.50;99.90;;;;;;5021355;28;20036;-61
2020/12/07 01:35:21;;;;;;;;;;;4.40;99.90;;;;;;5033508;28;20356;-62
2020/12/07 01:37:47;;;;;;;;;;;4.40;99.90;;;;;;5020401;28;19960;-62
2020/12/07 01:40:14;;;;;;;;;;;4.40;99.90;;;;;;5017249;28;20008;-62
2020/12/07 01:42:41;;;;;;;;;;;4.50;99.90;;;;;;5020023;28;19976;-61
2020/12/07 01:45:07;;;;;;;;;;;4.50;99.90;;;;;;5014685;28;19984;-63
2020/12/07 01:47:33;;;;;;;;;;;4.40;99.90;;;;;;5029034;28;20384;-60
2020/12/07 01:49:59;;;;;;;;;;;4.40;99.90;;;;;;5032089;28;20020;-62
2020/12/07 01:52:26;;;;;;;;;;;4.40;99.90;;;;;;5030784;28;20012;-63
2020/12/07 01:54:52;;;;;;;;;;;4.40;99.90;;;;;;5014080;28;20398;-64
2020/12/07 01:57:18;;;;;;;;;;;4.40;99.90;;;;;;5015940;28;19972;-60
2020/12/07 01:59:45;;;;;;;;;;;4.50;99.90;;;;;;5015427;28;20369;-62
2020/12/07 02:02:11;;;;;;;;;;;4.40;99.90;;;;;;5013737;28;19929;-62
2020/12/07 02:04:38;;;;;;;;;;;4.40;99.90;;;;;;5030191;28;19987;-64
2020/12/07 02:07:04;;;;;;;;;;;4.40;99.90;;;;;;5028488;28;19925;-63
2020/12/07 02:09:30;;;;;;;;;;;4.30;99.90;;;;;;5032409;28;19987;-62
2020/12/07 02:11:57;;;;;;;;;;;4.40;99.90;;;;;;5033130;28;19968;-62
2020/12/07 02:14:23;;;;;;;;;;;4.40;99.90;;;;;;5022770;28;20342;-62
2020/12/07 02:16:50;;;;;;;;;;;4.40;99.90;;;;;;5033021;28;20007;-61
2020/12/07 02:19:16;;;;;;;;;;;4.30;99.90;;;;;;5032339;28;20397;-64
2020/12/07 02:21:43;;;;;;;;;;;4.30;99.90;;;;;;5027010;28;20007;-63
2020/12/07 02:24:09;;;;;;;;;;;4.30;99.90;;;;;;5018001;28;19968;-63
2020/12/07 02:26:36;;;;;;;;;;;4.30;99.90;;;;;;5018752;28;19956;-62
2020/12/07 02:29:02;;;;;;;;;;;4.20;99.90;;;;;;5030131;28;20039;-63
2020/12/07 02:31:28;;;;;;;;;;;4.30;99.90;;;;;;5032453;28;20388;-63
2020/12/07 02:33:54;;;;;;;;;;;4.30;99.90;;;;;;5032492;28;19953;-63
2020/12/07 02:36:20;;;;;;;;;;;4.30;99.90;;;;;;5030561;28;19968;-64
2020/12/07 02:38:47;;;;;;;;;;;4.30;99.90;;;;;;5026714;28;19969;-63
2020/12/07 02:41:14;;;;;;;;;;;4.30;99.90;;;;;;5012960;28;20016;-63
2020/12/07 02:43:40;;;;;;;;;;;4.30;99.90;;;;;;5023759;28;20681;-62
2020/12/07 02:46:06;;;;;;;;;;;4.20;99.90;;;;;;5026737;28;20029;-65
2020/12/07 02:48:32;;;;;;;;;;;4.20;99.90;;;;;;5012783;28;20429;-64
2020/12/07 02:50:58;;;;;;;;;;;4.20;99.90;;;;;;5030914;28;19964;-62
2020/12/07 02:53:24;;;;;;;;;;;4.20;99.90;;;;;;5030390;28;20007;-63
2020/12/07 02:55:52;;;;;;;;;;;4.20;99.90;;;;;;5032072;28;20353;-64
2020/12/07 02:58:18;;;;;;;;;;;4.20;99.90;;;;;;5032412;28;20114;-62
2020/12/07 03:00:44;;;;;;;;;;;4.20;99.90;;;;;;5019820;28;20411;-62
2020/12/07 03:03:10;;;;;;;;;;;4.20;99.90;;;;;;5027885;28;19972;-63
2020/12/07 03:05:36;;;;;;;;;;;4.20;99.90;;;;;;5031693;28;20023;-64
2020/12/07 03:08:02;;;;;;;;;;;4.30;99.90;;;;;;5031969;28;20647;-61
2020/12/07 03:10:28;;;;;;;;;;;4.30;99.90;;;;;;5026608;28;20009;-62
2020/12/07 03:12:56;;;;;;;;;;;4.30;99.90;;;;;;5014042;28;20016;-62
2020/12/07 03:15:22;;;;;;;;;;;4.40;99.90;;;;;;5013653;28;20016;-62
2020/12/07 03:17:48;;;;;;;;;;;4.40;99.90;;;;;;5024281;28;19929;-63
2020/12/07 03:20:14;;;;;;;;;;;4.40;99.90;;;;;;5027575;28;20008;-62
2020/12/07 03:22:40;;;;;;;;;;;4.40;99.90;;;;;;5030304;28;20024;-65
2020/12/07 03:25:06;;;;;;;;;;;4.50;99.90;;;;;;5013397;28;19973;-61
2020/12/07 03:27:33;;;;;;;;;;;4.30;99.90;;;;;;5015117;28;20001;-63
2020/12/07 03:30:00;;;;;;;;;;;4.40;99.90;;;;;;5031564;28;20020;-63
2020/12/07 03:32:26;;;;;;;;;;;4.40;99.90;;;;;;5028407;28;20020;-61
2020/12/07 03:34:52;;;;;;;;;;;4.50;99.90;;;;;;5032042;28;20023;-62
2020/12/07 03:37:18;;;;;;;;;;;4.50;99.90;;;;;;5031428;28;20374;-60
2020/12/07 03:39:44;;;;;;;;;;;4.60;99.90;;;;;;5031303;28;19925;-63
2020/12/07 03:42:11;;;;;;;;;;;4.60;99.90;;;;;;5025460;28;19929;-61
2020/12/07 03:44:37;;;;;;;;;;;4.70;99.90;;;;;;5031388;28;20016;-62
2020/12/07 03:47:04;;;;;;;;;;;4.70;99.90;;;;;;5011827;28;19969;-63
2020/12/07 03:49:30;;;;;;;;;;;4.70;99.90;;;;;;5024527;28;19964;-63
2020/12/07 03:51:56;;;;;;;;;;;4.70;99.90;;;;;;5017019;28;20011;-63
2020/12/07 03:54:22;;;;;;;;;;;4.80;99.90;;;;;;5031625;28;20436;-62
2020/12/07 03:56:48;;;;;;;;;;;4.80;99.90;;;;;;5031152;28;19960;-62
2020/12/07 03:59:14;;;;;;;;;;;4.70;99.90;;;;;;5028233;28;19980;-62
2020/12/07 04:01:41;;;;;;;;;;;4.70;99.90;;;;;;5015742;28;20445;-61
2020/12/07 04:04:11;;;;;;;;;;;4.80;99.90;;;;;;5028759;28;19960;-62
2020/12/07 04:06:40;;;;;;;;;;;4.80;99.90;;;;;;5024155;28;20019;-61
2020/12/07 04:09:07;;;;;;;;;;;4.80;99.90;;;;;;5017254;28;19925;-63
2020/12/07 04:11:33;;;;;;;;;;;4.80;99.90;;;;;;5027832;28;20341;-63
2020/12/07 04:13:59;;;;;;;;;;;4.80;99.90;;;;;;5014882;28;19965;-63
2020/12/07 04:16:26;;;;;;;;;;;4.80;99.90;;;;;;5034091;28;19964;-62
2020/12/07 04:18:52;;;;;;;;;;;4.80;99.90;;;;;;5028131;28;20000;-62
2020/12/07 04:21:19;;;;;;;;;;;4.80;99.90;;;;;;5033884;28;20354;-63
2020/12/07 04:23:45;;;;;;;;;;;4.90;99.90;;;;;;5033607;28;19968;-62
2020/12/07 04:26:11;;;;;;;;;;;4.90;99.90;;;;;;5031686;28;20028;-63
2020/12/07 04:28:38;;;;;;;;;;;4.90;99.90;;;;;;5034551;28;20377;-63
2020/12/07 04:31:04;;;;;;;;;;;5.00;99.90;;;;;;5034988;28;19975;-61
2020/12/07 04:33:30;;;;;;;;;;;5.00;99.90;;;;;;5033927;28;20019;-67
2020/12/07 04:35:56;;;;;;;;;;;4.90;99.90;;;;;;5026544;28;20212;-63
2020/12/07 04:38:23;;;;;;;;;;;4.90;99.90;;;;;;5020712;28;20024;-62
2020/12/07 04:40:50;;;;;;;;;;;5.00;99.90;;;;;;5034460;28;20076;-62
2020/12/07 04:43:17;;;;;;;;;;;5.00;99.90;;;;;;5032439;28;20055;-62
2020/12/07 04:45:43;;;;;;;;;;;4.90;99.90;;;;;;5034947;28;19968;-62
2020/12/07 04:48:11;;;;;;;;;;;4.90;99.90;;;;;;5042712;22;20760;-66
2020/12/07 04:50:37;;;;;;;;;;;5.00;99.90;;;;;;4996402;28;20004;-64
2020/12/07 04:53:03;;;;;;;;;;;5.00;99.90;;;;;;5001156;28;20348;-64
2020/12/07 04:55:30;;;;;;;;;;;4.90;99.90;;;;;;4992436;28;19934;-64
2020/12/07 04:57:57;;;;;;;;;;;4.90;99.90;;;;;;4985427;28;19961;-64
2020/12/07 05:00:24;;;;;;;;;;;4.90;99.90;;;;;;5000147;28;20397;-64
2020/12/07 05:02:51;;;;;;;;;;;4.90;99.90;;;;;;5001685;28;20491;-65
2020/12/07 05:05:17;;;;;;;;;;;4.90;99.90;;;;;;4991990;28;20009;-64
2020/12/07 05:07:46;;;;;;;;;;;4.90;99.90;;;;;;4994138;28;20029;-65
2020/12/07 05:10:15;;;;;;;;;;;4.80;99.90;;;;;;5004714;28;20020;-64
2020/12/07 05:12:45;;;;;;;;;;;4.90;99.90;;;;;;5002866;28;19925;-65
2020/12/07 05:15:13;;;;;;;;;;;4.90;99.90;;;;;;5000759;28;19926;-64
2020/12/07 05:17:40;;;;;;;;;;;4.90;99.90;;;;;;4998049;28;20045;-64
2020/12/07 05:20:06;;;;;;;;;;;4.90;99.90;;;;;;4992836;28;20398;-64
2020/12/07 05:22:34;;;;;;;;;;;5.00;99.90;;;;;;4992644;28;19977;-64
2020/12/07 05:25:02;;;;;;;;;;;4.90;99.90;;;;;;4993413;28;20566;-66
2020/12/07 05:27:30;;;;;;;;;;;4.90;99.90;;;;;;4993377;28;20024;-64
2020/12/07 05:30:06;;;;;;;;;;;4.90;99.90;;;;;;4980457;28;20013;-64
2020/12/07 05:32:33;;;;;;;;;;;5.00;99.90;;;;;;4990903;28;19930;-64
2020/12/07 05:35:00;;;;;;;;;;;5.00;99.90;;;;;;4992972;28;19933;-64
2020/12/07 05:37:26;;;;;;;;;;;4.90;99.90;;;;;;4995229;28;19932;-64
2020/12/07 05:39:53;;;;;;;;;;;5.00;99.90;;;;;;4991261;28;19929;-65
2020/12/07 05:42:22;;;;;;;;;;;5.00;99.90;;;;;;4997581;28;19983;-64
2020/12/07 05:44:49;;;;;;;;;;;5.00;99.90;;;;;;4994100;28;20346;-64
2020/12/07 05:47:18;;;;;;;;;;;4.90;99.90;;;;;;4997271;28;19926;-64
2020/12/07 05:49:46;;;;;;;;;;;4.80;99.90;;;;;;4993422;28;19926;-64
2020/12/07 05:52:13;;;;;;;;;;;4.80;99.90;;;;;;4993292;28;20356;-65
2020/12/07 05:54:39;;;;;;;;;;;4.90;99.90;;;;;;4991716;28;20036;-66
2020/12/07 05:57:08;;;;;;;;;;;5.00;99.90;;;;;;5007369;28;20020;-65
2020/12/07 05:59:39;;;;;;;;;;;5.00;99.90;;;;;;4994943;28;20141;-64
2020/12/07 06:02:08;;;;;;;;;;;5.10;99.90;;;;;;5002096;28;20405;-64
2020/12/07 06:04:36;;;;;;;;;;;5.00;99.90;;;;;;4993043;28;19977;-64
2020/12/07 06:07:02;;;;;;;;;;;4.90;99.90;;;;;;4991469;28;19972;-64
2020/12/07 06:09:30;;;;;;;;;;;4.90;99.90;;;;;;4996355;28;20028;-64
2020/12/07 06:11:58;;;;;;;;;;;5.00;99.90;;;;;;4994189;28;20025;-64
2020/12/07 06:14:24;;;;;;;;;;;5.00;99.90;;;;;;5004817;28;19969;-65
2020/12/07 06:16:51;;;;;;;;;;;5.00;99.90;;;;;;4993361;28;19973;-64
2020/12/07 06:19:18;;;;;;;;;;;4.90;99.90;;;;;;4984914;28;19976;-64
2020/12/07 06:21:54;;;;;;;;;;;4.90;99.90;;;;;;4990379;28;19925;-64
2020/12/07 06:24:20;;;;;;;;;;;4.90;99.90;;;;;;4992364;28;20250;-65
2020/12/07 06:26:59;;;;;;;;;;;4.90;99.90;;;;;;4993117;28;19981;-66
2020/12/07 06:29:25;;;;;;;;;;;4.90;99.90;;;;;;4995527;28;20333;-65
2020/12/07 06:31:52;;;;;;;;;;;4.90;99.90;;;;;;4991869;28;20023;-65
2020/12/07 06:34:19;;;;;;;;;;;4.90;99.90;;;;;;4991999;28;19969;-65
2020/12/07 06:36:45;;;;;;;;;;;4.90;99.90;;;;;;5010753;28;20353;-66
2020/12/07 06:39:12;;;;;;;;;;;4.80;99.90;;;;;;4992711;28;20013;-65
2020/12/07 06:41:39;;;;;;;;;;;4.80;99.90;;;;;;4998816;28;20388;-65
2020/12/07 06:44:06;;;;;;;;;;;4.80;99.90;;;;;;4992482;28;19980;-65
2020/12/07 06:46:49;;;;;;;;;;;4.70;99.90;;;;;;4993373;28;20342;-66
2020/12/07 06:49:15;;;;;;;;;;;4.70;99.90;;;;;;4992925;28;19926;-65
2020/12/07 06:51:44;;;;;;;;;;;4.70;99.90;;;;;;4994598;28;19926;-65
2020/12/07 06:57:17;;;;;;;;;;;4.70;99.90;;;;;;4994106;28;19926;-65
2020/12/07 06:59:52;;;;;;;;;;;4.70;99.90;;;;;;4992171;28;20012;-65
2020/12/07 07:02:18;;;;;;;;;;;4.70;99.90;;;;;;4991891;28;20386;-65
2020/12/07 07:04:50;;;;;;;;;;;4.60;99.90;;;;;;4993538;28;19926;-65
2020/12/07 07:07:18;;;;;;;;;;;4.50;99.90;;;;;;4991558;28;20473;-65
2020/12/07 07:09:45;;;;;;;;;;;4.50;99.90;;;;;;4994688;28;19968;-65
2020/12/07 07:12:12;;;;;;;;;;;4.50;99.90;;;;;;5004589;28;20032;-65
2020/12/07 07:14:38;;;;;;;;;;;4.50;99.90;;;;;;5007881;28;20015;-65
2020/12/07 07:17:04;;;;;;;;;;;4.50;99.90;;;;;;4992703;28;20008;-65
2020/12/07 07:19:30;;;;;;;;;;;4.50;99.90;;;;;;4996785;28;19957;-65
2020/12/07 07:21:58;;;;;;;;;;;4.50;99.90;;;;;;4999010;28;20409;-64
2020/12/07 07:24:26;;;;;;;;;;;4.50;99.90;;;;;;4996763;28;20381;-65
2020/12/07 07:27:00;;;;;;;;;;;4.50;99.90;;;;;;5010714;28;19925;-65
2020/12/07 07:29:26;;;;;;;;;;;4.60;99.90;;;;;;5000855;28;20382;-65
2020/12/07 07:31:52;;;;;;;;;;;4.60;99.90;;;;;;5008132;28;20008;-65
2020/12/07 07:34:18;;;;;;;;;;;4.60;99.90;;;;;;4991083;28;19929;-64
2020/12/07 07:36:45;;;;;;;;;;;4.60;99.90;;;;;;5002229;28;19981;-64
2020/12/07 07:39:13;;;;;;;;;;;4.70;99.90;;;;;;4999020;28;20017;-64
2020/12/07 07:41:40;;;;;;;;;;;4.70;99.90;;;;;;4993607;28;20468;-64
2020/12/07 07:44:07;;;;;;;;;;;4.70;99.90;;;;;;4994710;28;20460;-64
2020/12/07 07:46:36;;;;;;;;;;;4.70;99.90;;;;;;4992534;28;19960;-64
2020/12/07 07:49:15;;;;;;;;;;;4.70;99.90;;;;;;5005681;28;19925;-64
2020/12/07 07:52:28;;;;;;;;;;;4.70;99.90;;;;;;4995193;28;20438;-64
2020/12/07 08:17:24;;;;;;;;;;;4.80;99.90;;;;;;4961232;28;19923;-64
2020/12/07 08:19:52;;;;;;;;;;;4.80;99.90;;;;;;4984645;28;20035;-64
2020/12/07 08:22:18;;;;;;;;;;;4.80;99.90;;;;;;5003843;28;19925;-64
2020/12/07 08:24:52;;;;;;;;;;;4.80;99.90;;;;;;4994379;28;20045;-65
2020/12/07 08:27:18;;;;;;;;;;;4.80;99.90;;;;;;5005297;28;20008;-64
2020/12/07 08:29:44;;;;;;;;;;;4.80;99.90;;;;;;5009622;28;20009;-64
2020/12/07 08:32:20;;;;;;;;;;;4.80;99.90;;;;;;5001819;28;20428;-64
2020/12/07 08:34:47;;;;;;;;;;;4.90;99.90;;;;;;4995781;28;20010;-64
2020/12/07 08:37:13;;;;;;;;;;;4.90;99.90;;;;;;5002025;28;20003;-64
2020/12/07 08:39:39;;;;;;;;;;;4.90;99.90;;;;;;5006385;28;19975;-63
2020/12/07 08:42:05;;;;;;;;;;;4.80;99.90;;;;;;4993065;28;19965;-64
2020/12/07 08:44:31;;;;;;;;;;;4.90;99.90;;;;;;4996135;28;19980;-64
2020/12/07 08:46:57;;;;;;;;;;;4.80;99.90;;;;;;4998100;28;19965;-64
2020/12/07 08:49:24;;;;;;;;;;;4.80;99.90;;;;;;4994118;28;20436;-64
2020/12/07 08:51:52;;;;;;;;;;;4.80;99.90;;;;;;4998314;28;20248;-64
2020/12/07 08:54:19;;;;;;;;;;;4.80;99.90;;;;;;5006786;28;19977;-64
2020/12/07 08:56:45;;;;;;;;;;;4.80;99.90;;;;;;4993880;28;20301;-65
2020/12/07 08:59:11;;;;;;;;;;;4.90;99.90;;;;;;4990657;28;20021;-64
2020/12/07 09:01:37;;;;;;;;;;;4.90;99.90;;;;;;5001496;28;20031;-64
2020/12/07 09:04:05;;;;;;;;;;;4.90;99.90;;;;;;4993845;28;19992;-64
2020/12/07 09:06:31;;;;;;;;;;;4.80;99.90;;;;;;4995013;28;19926;-63
2020/12/07 09:08:58;;;;;;;;;;;5.00;99.90;;;;;;4993156;28;20017;-64
2020/12/07 09:11:24;;;;;;;;;;;5.00;99.90;;;;;;4990865;28;20016;-64
2020/12/07 09:13:51;;;;;;;;;;;5.10;99.90;;;;;;4993979;28;19961;-64
2020/12/07 09:16:17;;;;;;;;;;;5.10;99.90;;;;;;4994464;28;19926;-68
2020/12/07 09:18:43;;;;;;;;;;;;;;;;;;5006516;28;19932;-70
2020/12/07 09:21:10;;;;;;;;;;;5.40;99.90;;;;;;5001446;28;19965;-66
2020/12/07 09:23:37;;;;;;;;;;;5.40;99.90;;;;;;4998609;28;19926;-65
2020/12/07 09:26:04;;;;;;;;;;;5.50;99.90;;;;;;5000637;28;20016;-66
2020/12/07 09:28:30;;;;;;;;;;;5.40;99.90;;;;;;4993828;28;20013;-65
2020/12/07 09:30:57;;;;;;;;;;;5.40;99.90;;;;;;4995209;28;20000;-63
2020/12/07 09:33:23;;;;;;;;;;;5.60;99.90;;;;;;4992800;28;19969;-65
2020/12/07 09:35:49;;;;;;;;;;;5.70;99.90;;;;;;4993336;28;19965;-65
2020/12/07 09:38:15;;;;;;;;;;;5.90;99.90;;;;;;4992656;28;19965;-65
2020/12/07 09:40:42;;;;;;;;;;;5.80;99.90;;;;;;5000547;28;20012;-64
2020/12/07 09:43:09;;;;;;;;;;;5.70;99.90;;;;;;4996012;28;20346;-62
2020/12/07 09:45:35;;;;;;;;;;;5.70;99.90;;;;;;4991140;28;19973;-65
2020/12/07 09:48:01;;;;;;;;;;;5.80;99.90;;;;;;4983052;28;19973;-66
2020/12/07 09:50:27;;;;;;;;;;;5.90;99.90;;;;;;4990276;28;20069;-66
2020/12/07 09:52:54;;;;;;;;;;;5.90;99.90;;;;;;4999974;28;19972;-66
2020/12/07 09:55:22;;;;;;;;;;;6.00;99.90;;;;;;4991733;28;19980;-64
2020/12/07 09:57:48;;;;;;;;;;;6.10;99.90;;;;;;4992572;28;20414;-64
2020/12/07 10:00:15;;;;;;;;;;;6.00;99.90;;;;;;4992126;28;19973;-64
2020/12/07 10:02:41;;;;;;;;;;;6.00;99.90;;;;;;4992298;28;20460;-66
2020/12/07 10:05:08;;;;;;;;;;;6.10;99.90;;;;;;4992022;28;19969;-64
2020/12/07 10:07:34;;;;;;;;;;;6.10;99.90;;;;;;4988259;28;19961;-64
2020/12/07 10:10:00;;;;;;;;;;;6.20;99.90;;;;;;4988585;28;20016;-66
2020/12/07 10:12:26;;;;;;;;;;;6.10;99.90;;;;;;4988098;28;19981;-63
2020/12/07 10:14:54;;;;;;;;;;;6.00;99.90;;;;;;4984405;28;19981;-65
2020/12/07 10:17:22;;;;;;;;;;;6.00;99.90;;;;;;4985869;28;19925;-64
2020/12/07 10:19:48;;;;;;;;;;;6.00;99.90;;;;;;4991125;28;20362;-64
2020/12/07 10:22:14;;;;;;;;;;;6.10;99.90;;;;;;4991486;28;19977;-65
2020/12/07 10:24:40;;;;;;;;;;;6.20;99.90;;;;;;4990275;28;19985;-64
2020/12/07 10:27:06;;;;;;;;;;;6.30;99.90;;;;;;4991993;28;19949;-64
2020/12/07 10:29:33;;;;;;;;;;;6.40;99.90;;;;;;4990064;28;19977;-66
2020/12/07 10:31:59;;;;;;;;;;;;;;;;;;4990994;28;20398;-65
2020/12/07 10:34:26;;;;;;;;;;;;;;;;;;4993378;28;19961;-66
2020/12/07 10:36:52;;;;;;;;;;;;;;;;;;4990396;28;19926;-64
2020/12/07 10:39:19;;;;;;;;;;;;;;;;;;4991423;28;20020;-65
2020/12/07 10:41:45;;;;;;;;;;;;;;;;;;4989369;28;19933;-64
2020/12/07 10:44:12;;;;;;;;;;;;;;;;;;4989864;28;19932;-64
2020/12/07 10:46:39;;;;;;;;;;;;;;;;;;4979417;28;20009;-64
2020/12/07 10:49:06;;;;;;;;;;;;;;;;;;5005764;22;19929;-64
2020/12/07 10:51:32;;;;;;;;;;;;;;;;;;5000239;28;19925;-64
2020/12/07 10:53:58;;;;;;;;;;;;;;;;;;4989078;28;20036;-65
2020/12/07 10:56:25;;;;;;;;;;;;;;;;;;4997548;28;20016;-64
2020/12/07 10:58:52;;;;;;;;;;;;;;;;;;5000467;28;19926;-66
2020/12/07 11:01:18;;;;;;;;;;;;;;;;;;4997303;28;20019;-65
2020/12/07 11:03:46;;;;;;;;;;;;;;;;;;5002074;28;20447;-64
2020/12/07 11:06:17;;;;;;;;;;;;;;;;;;4999214;28;19972;-66
2020/12/07 11:08:49;;;;;;;;;;;;;;;;;;4998028;28;20619;-67
2020/12/07 11:11:16;;;;;;;;;;;;;;;;;;4995739;28;19980;-64
2020/12/07 11:13:42;;;;;;;;;;;;;;;;;;4999672;28;19925;-65
2020/12/07 11:16:09;;;;;;;;;;;;;;;;;;4991488;28;20617;-63
2020/12/07 11:18:36;;;;;;;;;;;;;;;;;;4987716;28;20052;-67
2020/12/07 11:21:03;;;;;;;;;;;;;;;;;;4992595;28;20357;-64
2020/12/07 11:23:29;;;;;;;;;;;;;;;;;;4990175;28;19930;-65
2020/12/07 11:25:56;;;;;;;;;;;;;;;;;;4991668;28;20020;-65
2020/12/07 11:28:22;;;;;;;;;;;;;;;;;;4994341;28;19981;-65
2020/12/07 11:30:50;;;;;;;;;;;;;;;;;;4996661;28;20029;-65
2020/12/07 11:33:17;;;;;;;;;;;;;;;;;;4995780;28;19926;-67
2020/12/07 11:35:43;;;;;;;;;;;;;;;;;;4994121;28;20342;-67
2020/12/07 11:38:13;;;;;;;;;;;;;;;;;;5006786;28;19976;-67
2020/12/07 11:40:57;;;;;;;;;;;;;;;;;;5004524;28;19933;-66
2020/12/07 11:43:34;;;;;;;;;;;;;;;;;;4989560;28;19932;-65
2020/12/07 11:46:01;;;;;;;;;;;;;;;;;;4990430;28;19926;-66
2020/12/07 11:48:27;;;;;;;;;;;;;;;;;;4995157;28;19952;-66
2020/12/07 11:50:54;;;;;;;;;;;;;;;;;;4990264;28;20016;-65
2020/12/07 11:53:20;;;;;;;;;;;;;;;;;;4995008;28;19969;-65
2020/12/07 11:55:47;;;;;;;;;;;;;;;;;;4991287;28;19980;-66
2020/12/07 11:58:13;;;;;;;;;;;;;;;;;;4990889;28;19933;-65
2020/12/07 12:00:40;;;;;;;;;;;;;;;;;;4996256;28;20040;-66
2020/12/07 12:03:06;;;;;;;;;;;;;;;;;;4995278;28;20453;-64
2020/12/07 12:05:33;;;;;;;;;;;;;;;;;;5005262;28;20016;-66
2020/12/07 12:07:59;;;;;;;;;;;;;;;;;;4997745;28;20005;-64
2020/12/07 12:10:26;;;;;;;;;;;;;;;;;;4990645;28;20353;-65
2020/12/07 12:12:52;;;;;;;;;;;;;;;;;;4990287;28;19980;-64
2020/12/07 12:15:19;;;;;;;;;;;;;;;;;;4989968;28;20016;-64
2020/12/07 12:17:46;;;;;;;;;;;;;;;;;;5003549;28;19925;-64
2020/12/07 12:20:13;;;;;;;;;;;;;;;;;;4992902;28;19925;-66
2020/12/07 12:22:39;;;;;;;;;;;;;;;;;;4989874;28;19973;-67
2020/12/07 12:25:06;;;;;;;;;;;;;;;;;;4992308;28;20117;-64
2020/12/07 12:27:32;;;;;;;;;;;;;;;;;;4990812;28;20024;-65
2020/12/07 12:29:59;;;;;;;;;;;;;;;;;;4997963;28;19925;-64
2020/12/07 12:32:25;;;;;;;;;;;;;;;;;;4996294;28;20025;-65
2020/12/07 12:34:52;;;;;;;;;;;;;;;;;;4996088;28;19980;-64
2020/12/07 12:37:18;;;;;;;;;;;;;;;;;;4996333;28;19926;-66
2020/12/07 12:39:45;;;;;;;;;;;;;;;;;;4993889;28;19957;-65
2020/12/07 12:42:11;;;;;;;;;;;;;;;;;;4999945;28;19970;-67
2020/12/07 12:44:37;;;;;;;;;;;;;;;;;;5012698;28;20016;-67
2020/12/07 12:47:04;;;;;;;;;;;;;;;;;;5006452;28;20464;-66
2020/12/07 12:49:30;;;;;;;;;;;;;;;;;;5008708;28;19926;-66
2020/12/07 12:51:57;;;;;;;;;;;;;;;;;;4993806;28;20044;-65
2020/12/07 12:54:23;;;;;;;;;;;;;;;;;;5001493;28;19957;-63
2020/12/07 12:56:50;;;;;;;;;;;;;;;;;;4993719;28;19945;-66
2020/12/07 12:59:17;;;;;;;;;;;;;;;;;;5011583;28;19968;-65
2020/12/07 13:01:43;;;;;;;;;;;;;;;;;;5006965;28;19926;-66
2020/12/07 13:04:10;;;;;;;;;;;;;;;;;;4992214;28;19960;-65
2020/12/07 13:06:36;;;;;;;;;;;;;;;;;;5004342;28;19925;-65
2020/12/07 13:09:03;;;;;;;;;;;;;;;;;;5006972;28;20401;-68
2020/12/07 13:11:29;;;;;;;;;;;;;;;;;;4997354;28;19930;-63
2020/12/07 13:13:56;;;;;;;;;;;;;;;;;;5001564;28;19931;-66
2020/12/07 13:16:25;;;;;;;;;;;;;;;;;;5010036;28;19930;-65
2020/12/07 13:18:54;;;;;;;;;;;;;;;;;;4992348;28;19929;-66
2020/12/07 13:21:24;;;;;;;;;;;;;;;;;;4994025;28;19985;-63
2020/12/07 13:23:56;;;;;;;;;;;;;;;;;;4990619;28;19926;-64
2020/12/07 13:26:29;;;;;;;;;;;;;;;;;;4978370;28;19926;-64
2020/12/07 13:28:55;;;;;;;;;;;;;;;;;;4994399;28;19980;-64
2020/12/07 13:31:22;;;;;;;;;;;;;;;;;;4994070;28;20021;-65
2020/12/07 13:33:48;;;;;;;;;;;;;;;;;;4997853;28;19971;-64
2020/12/07 13:36:17;;;;;;;;;;;;;;;;;;4991436;28;20473;-65
2020/12/07 13:38:43;;;;;;;;;;;;;;;;;;4991460;28;19925;-66
2020/12/07 13:41:10;;;;;;;;;;;;;;;;;;4992367;28;20341;-65
2020/12/07 13:43:36;;;;;;;;;;;;;;;;;;4995716;28;20393;-66
2020/12/07 13:46:03;;;;;;;;;;;;;;;;;;4989442;28;20020;-65
2020/12/07 13:48:29;;;;;;;;;;;;;;;;;;4987965;28;19937;-66
2020/12/07 13:50:56;;;;;;;;;;;;;;;;;;4992984;28;19969;-66
2020/12/07 13:53:22;;;;;;;;;;;;;;;;;;4993156;28;20020;-66
2020/12/07 13:55:49;;;;;;;;;;;;;;;;;;5002751;28;20381;-66
2020/12/07 13:58:15;;;;;;;;;;;;;;;;;;4993009;28;19930;-65
2020/12/07 14:00:42;;;;;;;;;;;;;;;;;;4992287;28;20338;-66
2020/12/07 14:03:08;;;;;;;;;;;;;;;;;;4993721;28;19930;-66
2020/12/07 14:05:35;;;;;;;;;;;;;;;;;;4992639;28;19991;-66
2020/12/07 14:08:01;;;;;;;;;;;;;;;;;;4991366;28;19977;-66
2020/12/07 14:10:28;;;;;;;;;;;;;;;;;;4989026;28;19953;-66
2020/12/07 14:12:54;;;;;;;;;;;;;;;;;;4991733;28;19964;-66
2020/12/07 14:15:21;;;;;;;;;;;;;;;;;;5006533;28;19964;-67
2020/12/07 14:17:58;;;;;;;;;;;;;;;;;;5001622;28;19984;-66
2020/12/07 14:20:29;;;;;;;;;;;;;;;;;;4990069;28;20400;-67
2020/12/07 14:25:53;;;;;;;;;;;;;;;;;;4984729;28;20440;-66
2020/12/07 14:28:47;;;;;;;;;;;;;;;;;;4989850;28;19948;-63
2020/12/07 14:42:12;;;;;;;;;;;;;;;;;;4996202;28;19955;-65
2020/12/07 14:44:42;;;;;;;;;;;;;;;;;;4993209;28;19976;-65
2020/12/07 14:47:09;;;;;;;;;;;;;;;;;;4983826;28;19934;-67
2020/12/07 14:49:35;;;;;;;;;;;;;;;;;;4990710;28;19933;-64
2020/12/07 14:52:04;;;;;;;;;;;;;;;;;;4963924;28;20109;-63
2020/12/07 14:54:35;;;;;;;;;;;;;;;;;;4969095;28;19934;-66
2020/12/07 14:57:27;;;;;;;;;;;;;;;;;;4962253;28;19977;-67
2020/12/07 15:05:45;;;;;;;;;;;;;;;;;;4932597;29;19923;-65
2020/12/07 15:13:53;;;;;;;;;;;;;;;;;;4971959;28;20283;-66
2020/12/07 15:16:19;;;;;;;;;;;;;;;;;;4964495;28;20203;-66
2020/12/07 15:18:46;;;;;;;;;;;;;;;;;;4971365;28;19926;-66
2020/12/07 15:21:12;;;;;;;;;;;;;;;;;;4972761;28;20016;-66
2020/12/07 15:23:39;;;;;;;;;;;;;;;;;;4971391;28;19996;-66
2020/12/07 15:26:05;;;;;;;;;;;;;;;;;;4970961;28;19930;-65
2020/12/07 15:28:32;;;;;;;;;;;;;;;;;;4969800;28;19926;-65
2020/12/07 15:30:58;;;;;;;;;;;;;;;;;;4969765;28;20446;-65
2020/12/07 15:33:25;;;;;;;;;;;;;;;;;;4978635;28;19977;-65
2020/12/07 15:35:51;;;;;;;;;;;;;;;;;;4971828;28;19993;-65
2020/12/07 15:38:18;;;;;;;;;;;;;;;;;;4971299;28;19985;-66
2020/12/07 15:40:45;;;;;;;;;;;;;;;;;;4971538;28;20310;-65
2020/12/07 15:43:12;;;;;;;;;;;;;;;;;;4973881;28;19989;-65
2020/12/07 15:45:38;;;;;;;;;;;;;;;;;;4971725;28;19926;-66
2020/12/07 15:48:05;;;;;;;;;;;;;;;;;;4974792;28;19986;-64
2020/12/07 15:50:31;;;;;;;;;;;;;;;;;;4970022;28;20450;-66
2020/12/07 15:52:58;;;;;;;;;;;;;;;;;;4976783;28;19957;-67
2020/12/07 15:55:24;;;;;;;;;;;;;;;;;;4978824;28;20390;-67
2020/12/07 15:57:51;;;;;;;;;;;;;;;;;;4966256;28;20021;-67
2020/12/07 16:00:19;;;;;;;;;;;;;;;;;;4964433;28;19930;-65
2020/12/07 16:02:45;;;;;;;;;;;;;;;;;;4971959;28;20021;-65